Terminal Aerodrome Forecast
Issued by NWS Wichita, KS

Home | Current Version | Previous Version | Text Only | Print | Product List | Glossary On
Versions: 1 2 3 4 5 6 7 8 9 10 11 12 13 14 15
179
FTUS43 KICT 241455 AAB
TAFICT
TAF AMD
KICT 241455Z 2415/2512 32011KT P6SM SCT025
      TEMPO 2415/2416 BKN025
     FM241600 32012G18KT P6SM SCT040
     FM242300 30005KT P6SM SKC
     FM250100 VRB03KT P6SM SKC
     FM250800 15006KT P6SM SKC=

USA.gov is the U.S. government's official web portal to all federal, state and local government web resources and services.